Time;durP1;ratioP1;P1;durP2;ratioP2;P2;SDS_P1;SDS_P2;PMS_P1;PMS_P2;Temp;Humidity;BMP_temperature;BMP_pressure;BME280_temperature;BME280_humidity;BME280_pressure;Samples;Min_cycle;Max_cycle;Signal;HPM_P1;HPM_P2
2023/09/07 00:00:43;;;;;;;14.03;7.43;;;;;;;25.35;64.32;99398.22;5073630;28;20176;-87
2023/09/07 00:03:09;;;;;;;12.37;7.07;;;;;;;25.33;64.40;99397.56;5073462;28;20177;-87
2023/09/07 00:05:35;;;;;;;16.57;6.70;;;;;;;25.31;64.20;99401.41;5073878;28;20177;-87
2023/09/07 00:08:02;;;;;;;15.83;6.93;;;;;;;25.30;64.45;99407.78;5055808;28;20724;-87
2023/09/07 00:10:29;;;;;;;13.80;6.90;;;;;;;25.30;64.27;99410.47;5073647;28;20222;-87
2023/09/07 00:12:57;;;;;;;10.63;5.97;;;;;;;25.28;64.42;99402.59;5073397;28;20238;-87
2023/09/07 00:15:23;;;;;;;14.17;6.93;;;;;;;25.29;64.28;99403.44;5074477;28;20215;-87
2023/09/07 00:17:51;;;;;;;14.20;6.70;;;;;;;25.30;64.45;99405.94;5073373;28;20173;-87
2023/09/07 00:20:19;;;;;;;14.90;6.27;;;;;;;25.29;64.27;99400.75;5074132;28;20173;-87
2023/09/07 00:22:45;;;;;;;12.23;6.30;;;;;;;25.27;64.14;99394.69;5055869;28;20181;-87
2023/09/07 00:25:12;;;;;;;12.70;6.30;;;;;;;25.23;64.56;99390.69;5073142;28;20188;-87
2023/09/07 00:27:38;;;;;;;8.97;5.00;;;;;;;25.20;64.56;99399.06;5073187;28;20205;-86
2023/09/07 00:30:05;;;;;;;10.30;5.93;;;;;;;25.17;64.66;99404.75;5073277;28;20216;-87
2023/09/07 00:32:33;;;;;;;11.30;6.00;;;;;;;25.16;64.63;99397.72;5051979;28;20241;-87
2023/09/07 00:35:00;;;;;;;10.57;5.07;;;;;;;25.16;64.76;99395.03;5053118;28;20176;-87
2023/09/07 00:37:26;;;;;;;10.43;5.37;;;;;;;25.14;64.63;99397.88;5053632;28;20182;-87
2023/09/07 00:39:53;;;;;;;11.63;4.97;;;;;;;25.12;64.70;99396.38;5047522;28;20181;-87
2023/09/07 00:42:20;;;;;;;10.97;5.40;;;;;;;25.09;64.67;99400.22;5052945;28;20272;-87
2023/09/07 00:44:48;;;;;;;11.27;5.70;;;;;;;25.03;64.99;99391.00;5052084;28;20513;-87
2023/09/07 00:47:16;;;;;;;8.53;5.20;;;;;;;25.01;64.79;99393.00;5053274;28;20247;-87
2023/09/07 00:49:43;;;;;;;9.33;4.77;;;;;;;25.03;64.69;99398.19;5052029;28;20196;-87
2023/09/07 00:52:10;;;;;;;13.17;4.93;;;;;;;25.00;65.07;99393.16;5051848;28;20649;-87
2023/09/07 00:54:41;;;;;;;11.23;4.60;;;;;;;25.01;64.40;99389.47;5052892;28;20184;-87
2023/09/07 00:57:08;;;;;;;9.20;5.27;;;;;;;25.01;64.52;99395.69;5053234;28;20567;-87
2023/09/07 00:59:34;;;;;;;13.67;4.77;;;;;;;24.98;64.37;99398.69;5051900;28;20186;-87
2023/09/07 01:02:00;;;;;;;8.83;4.97;;;;;;;24.97;64.68;99393.50;5053092;28;20219;-87
2023/09/07 01:04:27;;;;;;;8.73;4.47;;;;;;;24.99;64.11;99386.13;5052882;28;20178;-87
2023/09/07 01:07:13;;;;;;;7.87;5.00;;;;;;;25.02;64.00;99391.16;5051766;28;20198;-87
2023/09/07 01:09:42;;;;;;;11.70;5.43;;;;;;;24.98;63.92;99385.28;5051819;28;20178;-87
2023/09/07 01:12:14;;;;;;;9.93;5.50;;;;;;;24.98;63.45;99381.75;5055911;28;20221;-87
2023/09/07 01:14:42;;;;;;;8.00;5.07;;;;;;;24.92;63.26;99380.56;5056900;28;20204;-87
2023/09/07 01:17:09;;;;;;;12.40;5.20;;;;;;;24.91;63.25;99386.13;5056676;28;20181;-86
2023/09/07 01:19:36;;;;;;;11.33;4.80;;;;;;;24.89;63.02;99383.63;5056307;28;20174;-87
2023/09/07 01:22:04;;;;;;;10.23;4.83;;;;;;;24.89;63.02;99386.28;5056612;28;20230;-87
2023/09/07 01:24:32;;;;;;;11.17;5.00;;;;;;;24.90;62.92;99393.31;5056893;28;20705;-87
2023/09/07 01:27:01;;;;;;;8.67;4.63;;;;;;;24.87;63.01;99387.44;5057022;28;20198;-87
2023/09/07 01:29:29;;;;;;;10.17;5.27;;;;;;;24.82;63.01;99393.31;5055526;28;20634;-87
2023/09/07 01:31:54;;;;;;;9.60;5.53;;;;;;;24.80;63.14;99397.16;5057969;28;20981;-87
2023/09/07 01:34:20;;;;;;;8.63;5.20;;;;;;;24.80;63.09;99392.63;5058862;28;20193;-87
2023/09/07 01:36:47;;;;;;;9.43;4.97;;;;;;;24.80;63.24;99403.34;5076404;28;20638;-87
2023/09/07 01:39:13;;;;;;;10.70;5.43;;;;;;;24.77;63.15;99397.44;5058731;28;20188;-86
2023/09/07 01:41:40;;;;;;;7.70;4.40;;;;;;;24.76;63.43;99402.00;5058679;28;20177;-87
2023/09/07 01:44:06;;;;;;;11.07;5.13;;;;;;;24.75;63.54;99400.31;5076115;28;20169;-87
2023/09/07 01:46:32;;;;;;;10.20;4.77;;;;;;;24.74;63.45;99398.63;5058506;28;20646;-87
2023/09/07 01:48:58;;;;;;;11.20;4.60;;;;;;;24.76;63.49;99390.41;5076188;28;20191;-87
2023/09/07 01:51:27;;;;;;;9.00;4.73;;;;;;;24.76;63.34;99393.94;5076374;28;20574;-87
2023/09/07 01:53:53;;;;;;;11.77;4.67;;;;;;;24.73;63.79;99388.91;5076320;28;20618;-87
2023/09/07 01:56:18;;;;;;;9.67;5.20;;;;;;;24.70;63.96;99386.56;5075988;28;20180;-87
2023/09/07 01:58:45;;;;;;;8.03;4.67;;;;;;;24.74;64.09;99393.25;5075893;28;20251;-87
2023/09/07 02:01:40;;;;;;;10.40;5.07;;;;;;;24.72;63.96;99387.22;5058591;28;20188;-87
2023/09/07 02:04:07;;;;;;;8.40;4.27;;;;;;;24.70;63.49;99386.56;5054490;28;20189;-87
2023/09/07 02:06:32;;;;;;;15.40;5.27;;;;;;;24.68;63.70;99385.88;5075942;28;20185;-87
2023/09/07 02:08:59;;;;;;;10.07;4.63;;;;;;;24.67;63.30;99391.38;5058010;28;20519;-87
2023/09/07 02:11:24;;;;;;;6.93;4.63;;;;;;;24.67;63.03;99386.88;5075834;28;20591;-87
2023/09/07 02:13:50;;;;;;;7.23;4.37;;;;;;;24.64;62.72;99389.88;5075696;28;20309;-87
2023/09/07 02:16:18;;;;;;;10.83;4.00;;;;;;;24.60;62.64;99385.84;5057726;28;20173;-87
2023/09/07 02:18:45;;;;;;;7.53;4.60;;;;;;;24.57;62.12;99380.81;5075896;28;20633;-87
2023/09/07 02:21:13;;;;;;;10.60;4.27;;;;;;;24.57;61.95;99388.00;5057689;28;20268;-86
2023/09/07 02:23:39;;;;;;;9.97;4.53;;;;;;;24.51;61.99;99385.97;5074908;28;20177;-87
2023/09/07 02:26:05;;;;;;;7.33;3.80;;;;;;;24.46;61.88;99383.78;5075136;28;20177;-86
2023/09/07 02:28:31;;;;;;;10.37;4.37;;;;;;;24.44;61.66;99383.13;5075434;28;20664;-86
2023/09/07 02:31:05;;;;;;;9.83;4.83;;;;;;;24.44;61.62;99383.13;5057632;28;20196;-87
2023/09/07 02:33:31;;;;;;;9.00;3.93;;;;;;;24.37;61.42;99388.28;5075194;28;20197;-86
2023/09/07 02:35:57;;;;;;;8.27;4.40;;;;;;;24.39;61.48;99393.50;5075120;28;20181;-87
2023/09/07 02:38:24;;;;;;;7.17;4.27;;;;;;;24.41;61.35;99386.13;5074867;28;20600;-87
2023/09/07 02:40:50;;;;;;;7.73;3.70;;;;;;;24.41;61.24;99386.13;5075467;28;20169;-87
2023/09/07 02:43:17;;;;;;;5.30;3.60;;;;;;;24.37;61.23;99382.09;5075230;28;20250;-87
2023/09/07 02:45:42;;;;;;;7.13;4.30;;;;;;;24.39;61.15;99386.31;5075544;28;20181;-87
2023/09/07 02:48:09;;;;;;;5.50;3.23;;;;;;;24.34;61.01;99382.41;5057649;28;20307;-87
2023/09/07 02:50:35;;;;;;;7.17;3.80;;;;;;;24.35;60.73;99382.25;5057369;28;20181;-86
2023/09/07 02:53:04;;;;;;;7.60;3.43;;;;;;;24.35;60.77;99386.75;5075006;28;20173;-86
2023/09/07 02:55:29;;;;;;;5.20;3.43;;;;;;;24.32;60.83;99379.03;5057126;28;20189;-87
2023/09/07 02:57:57;;;;;;;11.07;4.10;;;;;;;24.33;60.61;99386.09;5075467;28;20169;-87
2023/09/07 03:00:23;;;;;;;6.50;3.57;;;;;;;24.30;60.36;99391.75;5057239;28;20173;-87
2023/09/07 03:02:49;;;;;;;9.67;4.47;;;;;;;24.26;60.82;99377.88;5057153;28;20250;-87
2023/09/07 03:05:19;;;;;;;5.73;3.87;;;;;;;24.25;60.70;99378.03;5075042;28;20200;-87
2023/09/07 03:07:46;;;;;;;7.27;3.93;;;;;;;24.23;60.49;99380.88;5074952;28;20195;-87
2023/09/07 03:10:12;;;;;;;9.20;4.67;;;;;;;24.17;60.84;99378.81;5074675;28;20173;-86
2023/09/07 03:12:37;;;;;;;9.60;5.23;;;;;;;24.22;60.50;99372.97;5074895;28;20177;-86
2023/09/07 03:15:04;;;;;;;8.63;3.40;;;;;;;24.20;60.57;99378.50;5074589;28;20173;-87
2023/09/07 03:17:29;;;;;;;10.70;4.30;;;;;;;24.15;60.79;99369.28;5057389;28;20177;-86
2023/09/07 03:19:55;;;;;;;7.63;4.00;;;;;;;24.15;60.62;99366.59;5074491;28;20536;-87
2023/09/07 03:22:21;;;;;;;11.83;4.97;;;;;;;24.04;61.20;99373.03;5074401;28;20233;-87
2023/09/07 03:24:46;;;;;;;10.50;4.10;;;;;;;23.97;61.26;99371.16;5056757;28;20618;-87
2023/09/07 03:27:13;;;;;;;8.80;4.10;;;;;;;23.90;61.70;99370.94;5074187;28;20205;-86
2023/09/07 03:29:40;;;;;;;9.57;3.83;;;;;;;24.00;61.61;99384.25;5074258;28;20181;-87
2023/09/07 03:32:06;;;;;;;9.73;3.87;;;;;;;24.00;61.27;99378.88;5073944;28;20263;-87
2023/09/07 03:34:32;;;;;;;7.43;4.30;;;;;;;24.00;61.83;99377.06;5056296;28;20290;-87
2023/09/07 03:36:58;;;;;;;7.50;4.07;;;;;;;23.99;61.47;99375.38;5074108;28;20173;-87
2023/09/07 03:39:24;;;;;;;9.50;4.13;;;;;;;23.92;61.92;99385.03;5074059;28;20177;-86
2023/09/07 03:41:52;;;;;;;8.13;4.23;;;;;;;23.95;61.89;99373.16;5056536;28;20204;-87
2023/09/07 03:44:18;;;;;;;7.50;4.07;;;;;;;23.96;61.71;99372.16;5073955;28;20188;-87
2023/09/07 03:46:45;;;;;;;7.23;3.90;;;;;;;23.94;61.87;99382.19;5073796;28;20658;-86
2023/09/07 03:49:11;;;;;;;8.40;4.23;;;;;;;23.90;61.58;99381.66;5056148;28;20713;-86
2023/09/07 03:51:38;;;;;;;9.53;4.33;;;;;;;23.91;61.42;99382.50;5073975;28;20693;-86
2023/09/07 03:54:04;;;;;;;10.20;3.63;;;;;;;23.92;61.12;99386.88;5074320;28;20619;-86
2023/09/07 03:56:30;;;;;;;9.30;3.90;;;;;;;23.97;60.87;99389.91;5073752;28;20169;-86
2023/09/07 03:58:56;;;;;;;9.77;4.17;;;;;;;23.97;61.01;99392.59;5073709;28;20197;-86
2023/09/07 04:01:23;;;;;;;6.27;3.70;;;;;;;24.04;60.65;99393.63;5073317;28;20666;-87
2023/09/07 04:03:50;;;;;;;8.00;4.03;;;;;;;24.04;60.79;99402.50;5055589;28;20279;-86
2023/09/07 04:06:17;;;;;;;8.63;4.20;;;;;;;24.05;60.43;99406.03;5053491;28;20198;-87
2023/09/07 04:08:43;;;;;;;12.30;4.10;;;;;;;24.14;60.07;99403.25;5055240;28;20184;-87
2023/09/07 04:11:09;;;;;;;7.87;4.43;;;;;;;24.17;59.89;99399.41;5072965;28;20180;-86
2023/09/07 04:13:35;;;;;;;10.43;4.20;;;;;;;24.16;59.96;99387.03;5073496;28;20177;-87
2023/09/07 04:16:01;;;;;;;8.03;4.17;;;;;;;24.16;60.01;99395.88;5073118;28;20207;-87
2023/09/07 04:18:26;;;;;;;11.10;4.37;;;;;;;24.16;60.01;99393.22;5074012;28;20188;-87
2023/09/07 04:20:51;;;;;;;5.53;3.57;;;;;;;24.19;60.04;99389.38;5072034;28;20173;-87
2023/09/07 04:23:17;;;;;;;10.50;4.10;;;;;;;24.18;60.18;99406.47;5056631;28;20188;-87
2023/09/07 04:25:42;;;;;;;7.27;4.30;;;;;;;24.23;60.05;99401.47;5073251;28;20173;-86
2023/09/07 04:28:09;;;;;;;7.30;4.43;;;;;;;24.21;60.72;99406.97;5055718;28;20188;-87
2023/09/07 04:30:42;;;;;;;10.93;5.23;;;;;;;24.15;61.96;99401.41;5073170;28;20185;-86
2023/09/07 04:33:07;;;;;;;9.37;5.30;;;;;;;24.08;62.45;99408.38;5072813;28;20267;-86
2023/09/07 04:35:34;;;;;;;10.90;5.50;;;;;;;24.12;62.79;99415.13;5055302;28;20195;-86
2023/09/07 04:37:59;;;;;;;11.53;5.20;;;;;;;24.13;63.32;99414.13;5073763;28;20236;-87
2023/09/07 04:40:26;;;;;;;10.03;5.20;;;;;;;24.06;63.21;99415.72;5093207;28;20184;-86
2023/09/07 04:42:52;;;;;;;9.50;5.40;;;;;;;24.11;63.46;99405.44;5059068;28;20200;-87
2023/09/07 04:45:19;;;;;;;8.63;4.90;;;;;;;24.12;63.25;99415.13;5071999;28;20188;-87
2023/09/07 04:47:46;;;;;;;11.50;5.53;;;;;;;24.13;63.15;99414.13;5072682;28;20604;-86
2023/09/07 04:50:13;;;;;;;8.17;4.40;;;;;;;24.11;62.76;99414.28;5072742;28;20212;-87
2023/09/07 04:52:40;;;;;;;9.47;5.43;;;;;;;24.14;62.93;99421.16;5072848;28;20634;-86
2023/09/07 04:55:07;;;;;;;9.17;5.27;;;;;;;24.13;63.10;99424.84;5055135;28;20219;-87
2023/09/07 04:57:33;;;;;;;12.03;5.27;;;;;;;24.16;63.27;99411.97;5072814;28;20623;-86
2023/09/07 05:00:00;;;;;;;7.60;5.20;;;;;;;24.12;63.35;99415.13;5072322;28;20199;-87
2023/09/07 05:02:27;;;;;;;8.47;5.47;;;;;;;24.07;63.50;99418.25;5055028;28;20173;-87
2023/09/07 05:04:53;;;;;;;9.43;4.63;;;;;;;24.11;63.45;99414.28;5055404;28;20667;-86
2023/09/07 05:07:20;;;;;;;7.73;4.57;;;;;;;24.09;63.61;99412.75;5054922;28;20295;-86
2023/09/07 05:09:47;;;;;;;7.77;4.50;;;;;;;24.13;63.77;99416.81;5072579;28;20252;-86
2023/09/07 05:12:14;;;;;;;8.67;4.73;;;;;;;24.19;63.00;99408.97;5072397;28;20180;-88
2023/09/07 05:14:40;;;;;;;8.13;5.27;;;;;;;24.26;62.81;99419.91;5072943;28;20268;-87
2023/09/07 05:17:06;;;;;;;6.67;4.40;;;;;;;24.32;62.94;99420.06;5072599;28;20184;-87
2023/09/07 05:19:32;;;;;;;8.30;4.13;;;;;;;24.40;62.70;99421.94;5054889;28;20185;-86
2023/09/07 05:21:59;;;;;;;12.30;5.03;;;;;;;24.48;62.64;99419.31;5054720;28;20234;-86
2023/09/07 05:24:26;;;;;;;11.93;4.70;;;;;;;24.53;62.41;99426.88;5072932;28;20200;-87
2023/09/07 05:26:53;;;;;;;8.17;4.37;;;;;;;24.55;62.77;99425.72;5072191;28;20678;-87
2023/09/07 05:29:20;;;;;;;9.90;4.43;;;;;;;24.64;62.69;99423.88;5054738;28;20219;-87
2023/09/07 05:31:45;;;;;;;9.90;4.83;;;;;;;24.72;62.38;99421.22;5054707;28;20181;-87
2023/09/07 05:34:11;;;;;;;6.53;4.13;;;;;;;24.75;62.82;99427.13;5072284;28;20646;-86
2023/09/07 05:36:36;;;;;;;9.70;5.03;;;;;;;24.81;62.65;99425.66;5072580;28;20196;-86
2023/09/07 05:39:03;;;;;;;8.17;4.77;;;;;;;24.91;62.82;99432.56;5072369;28;20187;-86
2023/09/07 05:41:29;;;;;;;11.87;5.33;;;;;;;25.00;63.18;99419.97;5072353;28;20177;-86
2023/09/07 05:43:55;;;;;;;11.70;6.07;;;;;;;24.98;62.95;99430.88;5072196;28;20201;-86
2023/09/07 05:46:20;;;;;;;10.47;5.83;;;;;;;24.98;63.78;99427.34;5072285;28;20248;-87
2023/09/07 05:48:46;;;;;;;8.00;4.93;;;;;;;25.01;64.07;99427.03;5072464;28;20264;-87
2023/09/07 05:51:12;;;;;;;10.50;5.97;;;;;;;25.01;64.21;99422.50;5072731;28;20209;-87
2023/09/07 05:53:40;;;;;;;10.07;4.70;;;;;;;25.06;64.26;99424.69;5072281;28;20264;-87
2023/09/07 05:56:06;;;;;;;9.17;5.80;;;;;;;25.08;63.99;99427.22;5072461;28;20256;-86
2023/09/07 05:58:33;;;;;;;9.60;5.20;;;;;;;25.05;63.53;99426.53;5075963;28;20185;-86
2023/09/07 06:01:00;;;;;;;8.73;4.97;;;;;;;25.16;63.13;99424.56;5075993;28;20184;-88
2023/09/07 06:03:26;;;;;;;6.90;4.63;;;;;;;25.17;62.46;99428.91;5075869;28;20173;-86
2023/09/07 06:05:53;;;;;;;7.10;4.77;;;;;;;25.33;61.89;99412.81;5075433;28;20173;-86
2023/09/07 06:08:19;;;;;;;7.23;4.40;;;;;;;25.43;61.32;99424.22;5075601;28;20654;-86
2023/09/07 06:10:44;;;;;;;12.50;4.80;;;;;;;25.57;61.22;99421.75;5075619;28;20205;-87
2023/09/07 06:13:10;;;;;;;11.27;4.77;;;;;;;25.68;59.87;99428.63;5074170;28;20246;-86
2023/09/07 06:15:36;;;;;;;7.60;3.83;;;;;;;25.77;59.98;99427.59;5056067;28;20181;-86
2023/09/07 06:18:03;;;;;;;5.80;3.80;;;;;;;25.91;59.62;99426.91;5073670;28;20185;-86
2023/09/07 06:20:30;;;;;;;9.23;4.60;;;;;;;26.08;58.86;99433.91;5055941;28;20181;-87
2023/09/07 06:22:57;;;;;;;7.93;4.20;;;;;;;26.17;57.17;99434.75;5039677;28;20190;-86
2023/09/07 06:25:23;;;;;;;7.13;3.90;;;;;;;26.26;56.60;99428.31;5053761;28;20184;-87
2023/09/07 06:27:50;;;;;;;6.90;4.37;;;;;;;26.26;55.85;99425.63;5066594;28;20279;-86
2023/09/07 06:30:15;;;;;;;5.97;3.47;;;;;;;26.27;55.60;99432.72;5076017;28;20181;-86
2023/09/07 06:32:42;;;;;;;7.90;4.13;;;;;;;26.45;55.23;99430.63;5068895;28;20275;-86
2023/09/07 06:35:08;;;;;;;7.50;4.13;;;;;;;26.50;55.37;99432.78;5055370;28;20651;-87
2023/09/07 06:37:36;;;;;;;7.73;4.10;;;;;;;26.56;55.17;99434.78;5055577;28;20184;-86
2023/09/07 06:40:03;;;;;;;5.20;3.50;;;;;;;26.62;55.49;99436.78;5055443;28;20255;-86
2023/09/07 06:42:30;;;;;;;8.30;3.73;;;;;;;26.72;55.58;99435.53;5075239;28;20177;-86
2023/09/07 06:44:56;;;;;;;7.90;4.33;;;;;;;26.82;52.68;99436.19;5052816;28;20181;-87
2023/09/07 06:47:21;;;;;;;5.33;3.20;;;;;;;26.83;51.96;99439.72;5054915;28;20655;-87
2023/09/07 06:49:48;;;;;;;6.87;3.20;;;;;;;26.79;50.75;99439.22;5055255;28;20405;-86
2023/09/07 06:52:15;;;;;;;7.82;3.17;;;;;;;26.72;50.39;99442.78;5071098;28;20187;-87
2023/09/07 06:54:40;;;;;;;5.33;3.10;;;;;;;26.85;51.00;99448.44;5075110;28;20200;-86
2023/09/07 06:57:08;;;;;;;9.30;3.57;;;;;;;27.02;49.49;99447.31;5050654;28;20250;-87
2023/09/07 06:59:35;;;;;;;6.57;3.15;;;;;;;27.19;48.72;99448.91;5054824;28;20536;-86
2023/09/07 07:02:04;;;;;;;4.90;3.05;;;;;;;27.23;48.15;99455.59;5072006;28;20277;-87
2023/09/07 07:04:31;;;;;;;6.43;2.70;;;;;;;27.37;47.20;99452.13;5075078;28;20222;-87
2023/09/07 07:06:57;;;;;;;4.72;2.78;;;;;;;27.42;47.60;99447.09;5074741;28;20201;-87
2023/09/07 07:09:24;;;;;;;5.00;2.60;;;;;;;27.61;46.96;99444.91;5073921;28;20178;-87
2023/09/07 07:11:50;;;;;;;6.57;3.03;;;;;;;27.78;47.04;99446.44;5074770;28;20214;-86
2023/09/07 07:14:17;;;;;;;4.28;2.33;;;;;;;28.09;47.54;99444.50;5056633;28;20263;-87
2023/09/07 07:16:44;;;;;;;7.78;2.25;;;;;;;28.27;45.07;99453.06;5056840;28;20212;-87
2023/09/07 07:19:10;;;;;;;5.25;2.47;;;;;;;28.36;44.89;99451.06;5074206;28;20184;-87
2023/09/07 07:21:37;;;;;;;5.18;2.50;;;;;;;28.41;44.19;99452.19;5074256;28;20181;-87
2023/09/07 07:24:06;;;;;;;8.15;3.22;;;;;;;28.42;44.04;99440.41;5065663;28;20235;-86
2023/09/07 07:26:32;;;;;;;6.15;2.78;;;;;;;28.49;45.68;99444.00;5054244;28;20628;-87
2023/09/07 07:28:59;;;;;;;6.70;2.50;;;;;;;28.52;44.16;99443.63;5045658;28;20180;-86
2023/09/07 07:31:26;;;;;;;5.72;2.97;;;;;;;28.63;45.33;99445.06;5057951;28;20322;-87
2023/09/07 07:33:53;;;;;;;5.88;2.72;;;;;;;28.62;42.49;99448.75;5072299;28;20225;-86
2023/09/07 07:36:18;;;;;;;6.90;2.60;;;;;;;28.66;44.47;99454.63;5054536;28;20254;-86
2023/09/07 07:38:44;;;;;;;4.75;2.70;;;;;;;28.62;43.57;99452.31;5054419;28;20169;-86
2023/09/07 07:41:09;;;;;;;5.68;3.33;;;;;;;28.73;43.54;99447.44;5054367;28;20173;-86
2023/09/07 07:43:35;;;;;;;6.13;2.95;;;;;;;28.86;42.91;99453.00;5054616;28;20674;-86
2023/09/07 07:46:02;;;;;;;6.85;2.78;;;;;;;29.04;42.55;99451.56;5073929;28;20183;-86
2023/09/07 07:48:29;;;;;;;4.13;2.30;;;;;;;29.24;41.50;99447.22;5073767;28;20209;-88
2023/09/07 07:50:56;;;;;;;4.47;2.28;;;;;;;29.46;41.68;99450.78;5056576;28;20193;-86
2023/09/07 07:53:23;;;;;;;4.60;2.60;;;;;;;29.69;41.96;99447.88;5073641;28;20250;-87
2023/09/07 07:55:50;;;;;;;4.95;2.25;;;;;;;29.94;41.67;99448.31;5074064;28;20169;-87
2023/09/07 07:58:16;;;;;;;9.40;2.92;;;;;;;30.19;40.57;99446.84;5073728;28;20177;-87
2023/09/07 08:00:47;;;;;;;5.43;2.03;;;;;;;30.38;38.91;99446.13;5056019;28;20180;-87
2023/09/07 08:03:15;;;;;;;7.55;3.20;;;;;;;30.45;38.95;99452.44;5056618;28;20586;-87
2023/09/07 08:05:40;;;;;;;4.90;1.85;;;;;;;30.64;38.70;99440.84;5053079;28;20207;-87
2023/09/07 08:08:07;;;;;;;3.17;1.98;;;;;;;30.80;37.92;99456.75;5055527;28;20208;-86
2023/09/07 08:10:37;;;;;;;4.32;2.00;;;;;;;30.83;37.33;99450.94;5055669;28;20638;-86
2023/09/07 08:13:04;;;;;;;6.15;2.47;;;;;;;30.78;38.26;99452.56;5073236;28;20326;-87
2023/09/07 08:15:32;;;;;;;9.95;2.00;;;;;;;30.70;38.51;99441.91;5073153;28;20180;-86
2023/09/07 08:17:59;;;;;;;4.45;2.13;;;;;;;30.89;38.94;99455.53;5055884;28;20181;-87
2023/09/07 08:20:26;;;;;;;6.05;2.90;;;;;;;30.84;38.25;99451.75;5072451;28;20173;-87
2023/09/07 08:22:53;;;;;;;4.15;2.42;;;;;;;30.91;39.21;99442.66;5073330;28;20271;-88
2023/09/07 08:25:20;;;;;;;6.50;1.88;;;;;;;31.12;39.05;99446.25;5073120;28;20177;-87
2023/09/07 08:27:47;;;;;;;6.97;2.15;;;;;;;31.17;37.97;99438.34;5072972;28;20209;-87
2023/09/07 08:30:18;;;;;;;6.55;2.42;;;;;;;31.08;38.43;99440.41;5073372;28;20177;-87
2023/09/07 08:32:45;;;;;;;4.07;2.22;;;;;;;30.89;38.99;99436.59;5072608;28;20335;-87
2023/09/07 08:35:13;;;;;;;4.47;2.15;;;;;;;31.06;38.59;99441.63;5055794;28;20238;-87
2023/09/07 08:37:40;;;;;;;4.43;2.40;;;;;;;31.22;38.41;99438.56;5072764;28;20246;-87
2023/09/07 08:40:08;;;;;;;12.38;2.95;;;;;;;31.27;37.15;99436.06;5055301;28;20272;-87
2023/09/07 08:42:39;;;;;;;7.20;2.60;;;;;;;31.36;37.65;99424.84;5072700;28;20284;-86
2023/09/07 08:45:07;;;;;;;5.88;2.70;;;;;;;31.40;37.61;99420.66;5073056;28;20226;-87
2023/09/07 08:47:38;;;;;;;5.30;2.65;;;;;;;31.60;37.04;99426.16;5055278;28;20211;-87
2023/09/07 08:50:10;;;;;;;5.22;2.03;;;;;;;31.82;35.96;99408.59;5055197;28;20177;-87
2023/09/07 08:52:37;;;;;;;7.57;2.65;;;;;;;31.97;36.17;99409.19;5055107;28;20219;-87
2023/09/07 08:55:04;;;;;;;6.07;2.63;;;;;;;32.13;36.12;99407.94;5055614;28;20610;-87
2023/09/07 08:57:32;;;;;;;4.43;2.20;;;;;;;32.08;35.58;99405.88;5072586;28;20302;-87
2023/09/07 08:59:58;;;;;;;5.95;2.33;;;;;;;31.88;37.85;99402.34;5072895;28;20246;-86
2023/09/07 09:02:25;;;;;;;5.22;2.58;;;;;;;31.92;37.01;99403.56;5072905;28;20259;-86
2023/09/07 09:04:53;;;;;;;10.32;2.97;;;;;;;32.27;36.22;99396.03;5072653;28;20710;-87
2023/09/07 09:07:21;;;;;;;5.43;2.75;;;;;;;32.37;35.25;99401.00;5055223;28;20205;-88
2023/09/07 09:09:47;;;;;;;7.38;2.20;;;;;;;32.50;35.71;99390.09;5055252;28;20185;-88
2023/09/07 09:12:13;;;;;;;5.30;2.40;;;;;;;32.39;34.27;99388.06;5055168;28;20200;-87
2023/09/07 09:14:46;;;;;;;4.90;2.63;;;;;;;32.05;34.88;99392.75;5072586;28;20622;-87
2023/09/07 09:17:14;;;;;;;4.70;2.60;;;;;;;31.89;35.87;99374.16;5072847;28;20211;-88
2023/09/07 09:19:41;;;;;;;6.65;2.20;;;;;;;31.96;35.49;99377.72;5054801;28;20181;-87
2023/09/07 09:22:08;;;;;;;6.10;2.58;;;;;;;32.12;35.36;99377.31;5072457;28;20686;-86
2023/09/07 09:24:34;;;;;;;4.10;2.47;;;;;;;32.01;36.26;99380.66;5072459;28;20212;-87
2023/09/07 09:27:02;;;;;;;4.90;2.88;;;;;;;32.26;35.21;99382.69;5072553;28;20235;-87
2023/09/07 09:29:29;;;;;;;7.45;3.35;;;;;;;32.33;35.19;99367.22;5054915;28;20540;-87
2023/09/07 09:31:55;;;;;;;4.35;2.50;;;;;;;32.56;34.94;99368.41;5056737;28;20177;-87
2023/09/07 09:34:22;;;;;;;5.70;2.10;;;;;;;32.67;33.48;99364.16;5076358;28;20189;-88
2023/09/07 09:36:49;;;;;;;4.93;2.60;;;;;;;32.52;34.30;99358.16;5058978;28;20239;-87
2023/09/07 09:39:25;;;;;;;6.18;2.63;;;;;;;32.40;34.13;99365.28;5058857;28;20595;-88
2023/09/07 09:41:52;;;;;;;5.60;2.67;;;;;;;32.21;33.65;99361.59;5076323;28;20192;-87
2023/09/07 09:44:25;;;;;;;5.28;2.25;;;;;;;32.36;33.43;99364.91;5095677;28;20191;-87
2023/09/07 09:46:56;;;;;;;7.97;2.40;;;;;;;32.45;33.73;99355.47;5095454;28;20269;-87
2023/09/07 09:49:22;;;;;;;4.43;2.83;;;;;;;32.44;34.26;99358.41;5095456;28;20179;-87
2023/09/07 09:51:51;;;;;;;3.72;2.22;;;;;;;32.67;34.25;99350.59;5095378;28;20172;-87
2023/09/07 09:54:18;;;;;;;4.90;2.40;;;;;;;32.77;33.92;99348.22;5079867;28;20177;-87
2023/09/07 09:56:45;;;;;;;4.75;2.40;;;;;;;32.98;33.15;99344.34;5057426;28;20271;-87
2023/09/07 09:59:16;;;;;;;5.95;2.97;;;;;;;32.70;33.09;99348.28;5074990;28;20234;-87
2023/09/07 10:01:50;;;;;;;7.80;2.60;;;;;;;33.09;32.42;99346.38;5076016;28;20223;-87
2023/09/07 10:04:18;;;;;;;3.97;2.20;;;;;;;33.44;31.81;99341.31;5076529;28;20168;-88
2023/09/07 10:06:55;;;;;;;5.35;2.65;;;;;;;33.29;32.32;99342.47;5076037;28;20692;-86
2023/09/07 10:09:21;;;;;;;5.55;2.58;;;;;;;33.40;32.53;99336.31;5058356;28;20169;-87
2023/09/07 10:11:56;;;;;;;3.83;2.08;;;;;;;33.56;31.88;99337.66;5075742;28;20189;-87
2023/09/07 10:14:22;;;;;;;3.25;2.03;;;;;;;33.78;31.19;99332.66;5058213;28;20172;-88
2023/09/07 10:16:52;;;;;;;9.40;2.92;;;;;;;33.64;31.81;99331.09;5058065;28;20173;-88
2023/09/07 10:19:21;;;;;;;4.28;2.70;;;;;;;33.34;31.09;99334.47;5058076;28;20264;-87
2023/09/07 10:21:48;;;;;;;4.15;2.40;;;;;;;33.28;31.61;99329.13;5075715;28;20255;-87
2023/09/07 10:24:46;;;;;;;4.53;2.50;;;;;;;33.56;32.15;99320.53;5075682;28;20636;-87
2023/09/07 10:27:13;;;;;;;5.07;2.72;;;;;;;33.32;31.50;99324.88;5037868;28;20566;-86
2023/09/07 10:29:46;;;;;;;4.65;2.22;;;;;;;32.72;32.25;99332.59;5055567;28;20170;-86
2023/09/07 10:32:14;;;;;;;3.70;2.30;;;;;;;32.65;32.37;99331.78;5069714;28;20212;-87
2023/09/07 10:34:43;;;;;;;4.68;2.70;;;;;;;32.53;33.40;99327.28;5075467;28;20229;-87
2023/09/07 10:37:14;;;;;;;5.32;2.35;;;;;;;32.86;32.41;99319.78;5075428;28;20191;-86
2023/09/07 10:39:43;;;;;;;3.70;2.30;;;;;;;32.85;32.82;99312.69;5057847;28;20199;-87
2023/09/07 10:42:08;;;;;;;7.38;2.63;;;;;;;32.74;31.03;99310.66;5075227;28;20177;-87
2023/09/07 10:44:35;;;;;;;5.38;2.30;;;;;;;32.89;32.36;99297.59;5074346;28;20683;-87
2023/09/07 10:47:03;;;;;;;5.60;2.40;;;;;;;32.64;32.31;99302.16;5075237;28;20208;-87
2023/09/07 10:49:29;;;;;;;3.45;1.80;;;;;;;32.69;32.59;99308.59;5075417;28;20177;-90
2023/09/07 10:51:56;;;;;;;8.38;2.95;;;;;;;32.85;32.22;99307.25;5075435;28;20183;-88
2023/09/07 10:54:26;;;;;;;7.68;2.40;;;;;;;32.88;31.83;99308.69;5075109;28;20264;-87
2023/09/07 10:56:51;;;;;;;5.97;2.40;;;;;;;33.07;30.78;99310.47;5075301;28;20184;-86
2023/09/07 10:59:17;;;;;;;8.00;2.28;;;;;;;33.01;31.75;99300.44;5075047;28;20177;-87
2023/09/07 11:01:47;;;;;;;7.35;2.53;;;;;;;33.32;31.90;99303.16;5057388;28;20192;-87
2023/09/07 11:04:12;;;;;;;4.13;2.00;;;;;;;33.77;29.80;99295.63;5057558;28;20272;-87
2023/09/07 11:06:40;;;;;;;5.50;2.33;;;;;;;33.71;29.77;99291.91;5057453;28;20292;-89
2023/09/07 11:09:10;;;;;;;4.82;2.60;;;;;;;33.30;30.62;99292.50;5057496;28;20664;-88
2023/09/07 11:11:36;;;;;;;6.63;2.40;;;;;;;33.31;30.48;99296.88;5074856;28;20196;-88
2023/09/07 11:14:05;;;;;;;6.13;2.65;;;;;;;33.05;31.46;99291.66;5070378;28;20260;-87
2023/09/07 11:16:34;;;;;;;6.13;2.40;;;;;;;33.05;30.26;99283.50;5036834;28;20552;-87
2023/09/07 11:19:08;;;;;;;4.55;2.05;;;;;;;33.34;30.54;99280.13;5054219;28;20170;-87
2023/09/07 11:21:35;;;;;;;4.78;1.83;;;;;;;33.28;29.46;99270.13;5051929;28;20188;-87
2023/09/07 11:24:04;;;;;;;4.68;2.55;;;;;;;33.28;29.43;99270.13;5056766;28;20259;-87
2023/09/07 11:26:51;;;;;;;5.53;2.30;;;;;;;33.31;30.70;99268.84;5056424;28;20181;-87
2023/09/07 11:29:18;;;;;;;4.60;2.35;;;;;;;33.51;29.77;99268.69;5074202;28;20216;-87
2023/09/07 11:31:45;;;;;;;4.45;2.05;;;;;;;33.71;30.15;99275.59;5056794;28;20254;-87